Terminal Aerodrome Forecast
Issued by NWS

Current Version | Previous Version | Graphics & Text | Print | Product List | Glossary On
Versions: 1 2 3 4 5 6 7 8 9 10 11 12 13 14 15 16 17 18 19 20
000
FTUS41 KILN 282332
TAFLUK
TAF
KLUK 282332Z 2900/2924 06004KT P6SM SCT040
     FM290600 00000KT 2SM BR SCT150
     FM290900 00000KT 1/4SM FG VV002
     FM291300 26005KT P6SM SCT040 BKN120
     FM292000 28009KT P6SM -SHRA VCTS BKN035CB
     FM292300 29006KT P6SM FEW035 SCT120=

USA.gov is the U.S. government's official web portal to all federal, state and local government web resources and services.